createdAt,value
2018-11-22T00:01:56.635Z,27.30
2018-11-22T00:04:38.005Z,28.17
2018-11-22T00:07:18.409Z,29.23
2018-11-22T00:10:07.565Z,26.40
2018-11-22T00:15:50.209Z,27.60
2018-11-22T00:18:31.813Z,28.60
2018-11-22T00:21:12.735Z,27.60
2018-11-22T00:23:54.257Z,27.07
2018-11-22T00:26:35.959Z,27.43
2018-11-22T00:29:17.535Z,26.80
2018-11-22T00:32:00.032Z,26.53
2018-11-22T00:34:41.037Z,25.93
2018-11-22T00:37:22.331Z,27.40
2018-11-22T00:40:03.775Z,27.67
2018-11-22T00:42:46.047Z,27.67
2018-11-22T00:45:28.941Z,28.63
2018-11-22T00:48:10.174Z,27.30
2018-11-22T00:50:52.005Z,29.70
2018-11-22T00:53:33.604Z,29.43
2018-11-22T00:56:14.476Z,28.53
2018-11-22T00:58:55.517Z,27.73
2018-11-22T01:04:23.431Z,27.50
2018-11-22T01:07:04.712Z,27.67
2018-11-22T01:09:46.021Z,26.27
2018-11-22T01:12:27.777Z,25.83
2018-11-22T01:15:09.405Z,27.27
2018-11-22T01:17:50.618Z,28.67
2018-11-22T01:20:32.083Z,28.37
2018-11-22T01:23:13.641Z,27.63
2018-11-22T01:25:54.907Z,28.93
2018-11-22T01:28:36.251Z,25.50
2018-11-22T01:31:17.723Z,29.00
2018-11-22T01:33:59.243Z,29.33
2018-11-22T01:36:41.053Z,28.40
2018-11-22T01:39:22.379Z,27.97
2018-11-22T01:42:03.675Z,26.43
2018-11-22T01:44:45.088Z,26.00
2018-11-22T01:47:26.025Z,27.10
2018-11-22T01:50:07.279Z,27.53
2018-11-22T01:52:48.969Z,27.60
2018-11-22T01:55:29.927Z,26.67
2018-11-22T01:58:11.235Z,26.97
2018-11-22T02:00:52.601Z,27.00
2018-11-22T02:03:33.831Z,26.97
2018-11-22T02:06:14.929Z,25.73
2018-11-22T02:08:56.453Z,26.73
2018-11-22T02:11:38.287Z,28.17
2018-11-22T02:14:19.735Z,28.20
2018-11-22T02:17:00.849Z,27.20
2018-11-22T02:19:42.237Z,24.90
2018-11-22T02:22:23.689Z,28.40
2018-11-22T02:25:05.523Z,27.63
2018-11-22T02:27:46.415Z,26.50
2018-11-22T02:30:28.544Z,26.40
2018-11-22T02:33:09.877Z,27.10
2018-11-22T02:35:51.544Z,27.77
2018-11-22T02:38:33.234Z,28.37
2018-11-22T02:41:14.665Z,28.67
2018-11-22T02:43:56.107Z,28.00
2018-11-22T02:46:37.549Z,28.03
2018-11-22T02:52:06.587Z,26.70
2018-11-22T02:57:37.244Z,26.97
2018-11-22T03:03:01.017Z,27.07
2018-11-22T03:05:42.773Z,27.50
2018-11-22T03:08:23.735Z,26.60
2018-11-22T03:11:05.298Z,25.87
2018-11-22T03:16:48.446Z,26.93
2018-11-22T03:22:12.702Z,26.80
2018-11-22T03:24:54.107Z,25.50
2018-11-22T03:27:35.778Z,26.70
2018-11-22T03:30:18.700Z,30.13
2018-11-22T03:33:00.664Z,32.23
2018-11-22T03:35:41.533Z,32.90
2018-11-22T03:38:23.185Z,31.27
2018-11-22T03:41:05.033Z,32.03
2018-11-22T03:43:46.500Z,31.07
2018-11-22T03:49:16.991Z,27.70
2018-11-22T04:00:41.708Z,28.37
2018-11-22T04:14:48.838Z,32.00
2018-11-22T04:17:30.533Z,32.87
2018-11-22T04:28:41.304Z,36.20
2018-11-22T04:34:12.182Z,34.63
2018-11-22T04:39:35.990Z,35.60
2018-11-22T04:53:45.605Z,37.37
2018-11-22T04:56:39.156Z,35.07
2018-11-22T04:59:33.272Z,33.67
2018-11-22T05:24:59.122Z,33.50
2018-11-22T05:30:30.324Z,34.80
2018-11-22T05:35:58.283Z,33.30
2018-11-22T05:41:29.228Z,34.90
2018-11-22T05:52:31.518Z,33.50
2018-11-22T05:55:13.383Z,35.33
2018-11-22T05:57:55.483Z,34.03
2018-11-22T06:00:36.619Z,34.73
2018-11-22T06:03:18.729Z,35.20
2018-11-22T06:05:59.951Z,35.30
2018-11-22T06:08:42.417Z,35.10
2018-11-22T06:11:23.818Z,34.00
2018-11-22T06:14:06.394Z,34.00
2018-11-22T06:19:32.143Z,34.40
2018-11-22T06:22:01.448Z,32.60
2018-11-22T06:24:49.879Z,32.33
2018-11-22T06:27:38.675Z,33.27
2018-11-22T06:30:28.228Z,32.10
2018-11-22T06:35:58.307Z,30.73
2018-11-22T06:41:31.969Z,29.87
2018-11-22T06:47:03.324Z,32.77
2018-11-22T06:52:34.531Z,30.20
2018-11-22T07:00:59.920Z,30.57
2018-11-22T07:06:30.757Z,32.20
2018-11-22T07:12:01.390Z,28.77
2018-11-22T07:20:20.059Z,28.80
2018-11-22T12:18:05.472Z,47.23
2018-11-22T12:20:34.712Z,48.80
2018-11-22T12:23:09.939Z,45.33
2018-11-22T12:25:39.046Z,45.10
2018-11-22T12:28:08.167Z,40.13
2018-11-22T12:30:37.569Z,41.80
2018-11-22T12:33:08.298Z,40.77
2018-11-22T12:35:46.643Z,43.07
2018-11-22T12:38:23.000Z,42.13
2018-11-22T12:40:52.156Z,43.43
2018-11-22T12:43:21.251Z,44.40
2018-11-22T12:45:50.357Z,40.20
2018-11-22T12:48:19.523Z,36.90
2018-11-22T12:50:49.827Z,37.40
2018-11-22T12:53:18.975Z,33.67
2018-11-22T12:55:50.427Z,35.90
2018-11-22T12:58:19.646Z,35.43
2018-11-22T13:00:48.936Z,36.43
2018-11-22T13:03:18.114Z,41.70
2018-11-22T13:05:47.381Z,41.40
2018-11-22T13:08:16.512Z,41.97
2018-11-22T13:10:46.165Z,41.70
2018-11-22T13:13:15.280Z,40.30
2018-11-22T13:15:48.368Z,39.37
2018-11-22T13:18:17.750Z,41.90
2018-11-22T13:20:51.084Z,42.93
2018-11-22T13:23:20.567Z,39.10
2018-11-22T13:25:50.454Z,39.40
2018-11-22T13:28:20.029Z,38.93
2018-11-22T13:30:49.948Z,37.50
2018-11-22T13:33:21.197Z,39.03
2018-11-22T13:35:51.288Z,37.10
2018-11-22T13:38:20.876Z,38.10
2018-11-22T13:40:50.458Z,34.47
2018-11-22T13:43:20.108Z,34.57
2018-11-22T13:45:49.699Z,36.57
2018-11-22T13:48:19.414Z,36.60
2018-11-22T13:50:49.025Z,35.90
2018-11-22T13:53:20.552Z,35.60
2018-11-22T13:55:48.726Z,34.50
2018-11-22T13:58:18.628Z,32.80
2018-11-22T14:00:48.388Z,33.17
2018-11-22T14:03:17.926Z,33.90
2018-11-22T14:05:47.702Z,31.87
2018-11-22T14:08:16.877Z,32.67
2018-11-22T14:10:45.998Z,32.97
2018-11-22T14:13:18.608Z,32.83
2018-11-22T14:15:47.766Z,33.50
2018-11-22T14:18:16.924Z,34.37
2018-11-22T14:20:50.176Z,34.63
2018-11-22T14:23:19.338Z,34.80
2018-11-22T14:25:49.755Z,33.83
2018-11-22T14:28:18.930Z,34.93
2018-11-22T14:30:48.192Z,36.67
2018-11-22T14:33:17.312Z,35.47
2018-11-22T14:35:46.390Z,34.20
2018-11-22T14:38:15.864Z,34.83
2018-11-22T14:40:45.034Z,36.70
2018-11-22T14:43:14.116Z,36.27
2018-11-22T14:45:43.250Z,35.47
2018-11-22T14:48:12.393Z,34.87
2018-11-22T14:50:44.000Z,36.60
2018-11-22T14:53:17.992Z,34.60
2018-11-22T14:55:47.166Z,36.37
2018-11-22T14:58:16.446Z,37.30
2018-11-22T15:00:45.707Z,33.73
2018-11-22T15:03:14.865Z,35.10
2018-11-22T15:05:44.004Z,34.37
2018-11-22T15:08:13.140Z,34.40
2018-11-22T15:10:42.325Z,36.27
2018-11-22T15:13:11.489Z,35.83
2018-11-22T15:15:42.062Z,33.87
2018-11-22T15:18:11.220Z,34.43
2018-11-22T15:20:40.343Z,33.90
2018-11-22T15:23:09.485Z,32.93
2018-11-22T15:25:38.698Z,32.17
2018-11-22T15:28:07.846Z,32.20
2018-11-22T15:30:36.986Z,32.37
2018-11-22T15:33:06.194Z,33.07
2018-11-22T15:35:35.338Z,34.90
2018-11-22T15:38:05.869Z,34.40
2018-11-22T15:40:35.316Z,32.10
2018-11-22T15:43:04.873Z,30.90
2018-11-22T15:45:35.787Z,30.47
2018-11-22T15:48:04.005Z,28.70
2018-11-22T15:50:33.170Z,30.30
2018-11-22T15:53:02.289Z,30.37
2018-11-22T15:55:31.465Z,29.87
2018-11-22T15:58:01.279Z,28.60
2018-11-22T16:00:34.155Z,29.13
2018-11-22T16:03:03.913Z,28.47
2018-11-22T16:05:34.410Z,26.83
2018-11-22T16:08:03.711Z,30.07
2018-11-22T16:10:34.758Z,29.10
2018-11-22T16:13:07.334Z,29.27
2018-11-22T16:15:40.652Z,28.70
2018-11-22T16:18:10.429Z,28.10
2018-11-22T16:20:39.685Z,27.80
2018-11-22T16:23:09.279Z,27.43
2018-11-22T16:25:38.423Z,27.57
2018-11-22T16:28:07.719Z,28.73
2018-11-22T16:30:37.548Z,27.57
2018-11-22T16:33:06.832Z,27.20
2018-11-22T16:35:40.148Z,29.00
2018-11-22T16:38:09.533Z,28.60
2018-11-22T16:40:38.941Z,27.60
2018-11-22T16:43:08.318Z,25.33
2018-11-22T16:45:38.411Z,26.53
2018-11-22T16:48:09.667Z,27.00
2018-11-22T16:50:40.067Z,27.40
2018-11-22T16:53:09.352Z,26.87
2018-11-22T16:55:38.670Z,27.20
2018-11-22T16:58:08.262Z,26.90
2018-11-22T17:00:39.031Z,25.90
2018-11-22T17:03:11.508Z,26.20
2018-11-22T17:05:41.311Z,25.57
2018-11-22T17:08:10.988Z,25.90
2018-11-22T17:10:40.779Z,25.67
2018-11-22T17:13:10.119Z,26.37
2018-11-22T17:15:40.515Z,25.63
2018-11-22T17:18:10.588Z,25.13
2018-11-22T17:20:40.012Z,25.77
2018-11-22T17:23:09.479Z,28.17
2018-11-22T17:25:38.903Z,27.33
2018-11-22T17:28:09.052Z,26.83
2018-11-22T17:30:40.285Z,27.77
2018-11-22T17:33:10.978Z,27.70
2018-11-22T17:35:42.253Z,29.30
2018-11-22T17:38:12.187Z,29.80
2018-11-22T17:40:43.105Z,27.53
2018-11-22T17:43:13.436Z,26.77
2018-11-22T17:45:44.505Z,27.10
2018-11-22T17:48:14.053Z,25.80
2018-11-22T17:50:44.929Z,25.53
2018-11-22T17:53:15.746Z,27.57
2018-11-22T17:55:45.134Z,28.40
2018-11-22T17:58:14.916Z,27.77
2018-11-22T18:00:51.947Z,27.10
2018-11-22T18:03:21.389Z,27.00
2018-11-22T18:05:50.896Z,29.60
2018-11-22T18:08:24.791Z,28.23
2018-11-22T18:10:54.433Z,26.80
2018-11-22T18:13:23.721Z,26.93
2018-11-22T18:15:57.288Z,24.93
2018-11-22T18:18:27.029Z,24.00
2018-11-22T18:20:56.307Z,23.07
2018-11-22T18:23:25.556Z,24.00
2018-11-22T18:25:54.892Z,25.60
2018-11-22T18:28:27.667Z,25.57
2018-11-22T18:30:56.853Z,25.27
2018-11-22T18:33:27.543Z,22.90
2018-11-22T18:35:56.969Z,22.70
2018-11-22T18:38:29.429Z,23.83
2018-11-22T18:40:58.990Z,22.70
2018-11-22T18:43:28.476Z,23.83
2018-11-22T18:45:57.723Z,24.87
2018-11-22T18:48:28.346Z,24.70
2018-11-22T18:50:57.991Z,24.50
2018-11-22T18:53:27.231Z,23.40
2018-11-22T18:55:58.033Z,22.33
2018-11-22T18:58:27.294Z,27.20
2018-11-22T19:00:56.887Z,25.13
2018-11-22T19:03:26.480Z,24.60
2018-11-22T19:05:56.036Z,24.87
2018-11-22T19:08:25.404Z,26.00
2018-11-22T19:10:55.001Z,24.50
2018-11-22T19:13:24.216Z,24.73
2018-11-22T19:15:53.571Z,25.13
2018-11-22T19:18:23.113Z,23.33
2018-11-22T19:20:52.370Z,22.50
2018-11-22T19:23:21.741Z,22.20
2018-11-22T19:25:51.590Z,23.87
2018-11-22T19:28:21.364Z,22.67
2018-11-22T19:30:50.525Z,21.93
2018-11-22T19:33:21.541Z,22.47
2018-11-22T19:35:52.616Z,24.20
2018-11-22T19:38:30.723Z,24.70
2018-11-22T19:41:00.541Z,25.83
2018-11-22T19:43:30.300Z,24.77
2018-11-22T19:46:00.013Z,24.80
2018-11-22T19:48:29.789Z,25.30
2018-11-22T19:51:01.731Z,23.80
2018-11-22T19:53:28.685Z,24.60
2018-11-22T19:55:58.921Z,23.77
2018-11-22T19:58:28.301Z,24.57
2018-11-22T20:00:57.981Z,23.80
2018-11-22T20:03:27.119Z,22.97
2018-11-22T20:05:56.354Z,23.70
2018-11-22T20:08:29.922Z,23.80
2018-11-22T20:10:59.513Z,23.10
2018-11-22T20:13:28.994Z,22.77
2018-11-22T20:15:59.005Z,22.80
2018-11-22T20:18:28.653Z,24.27
2018-11-22T20:20:58.637Z,22.90
2018-11-22T20:23:28.402Z,24.00
2018-11-22T20:25:58.264Z,24.27
2018-11-22T20:28:28.073Z,25.17
2018-11-22T20:30:58.823Z,22.37
2018-11-22T20:33:29.117Z,22.27
2018-11-22T20:35:58.276Z,23.50
2018-11-22T20:38:27.391Z,23.53
2018-11-22T20:40:57.363Z,22.07
2018-11-22T20:43:29.378Z,22.83
2018-11-22T20:45:59.433Z,22.93
2018-11-22T20:48:36.786Z,21.90
2018-11-22T20:51:07.590Z,20.60
2018-11-22T20:53:37.132Z,21.53
2018-11-22T20:56:09.914Z,21.53
2018-11-22T20:58:39.078Z,19.73
2018-11-22T21:01:08.555Z,20.20
2018-11-22T21:03:38.079Z,20.70
2018-11-22T21:06:07.309Z,21.57
2018-11-22T21:08:38.063Z,21.70
2018-11-22T21:11:13.073Z,21.10
2018-11-22T21:13:42.177Z,19.97
2018-11-22T21:16:16.113Z,20.30
2018-11-22T21:18:46.525Z,18.93
2018-11-22T21:21:16.102Z,20.93
2018-11-22T21:23:45.619Z,20.27
2018-11-22T21:26:15.737Z,21.50
2018-11-22T21:28:44.827Z,21.27
2018-11-22T21:31:14.209Z,19.83
2018-11-22T21:33:44.011Z,22.23
2018-11-22T21:36:13.568Z,21.70
2018-11-22T21:38:42.785Z,20.67
2018-11-22T21:41:12.589Z,22.73
2018-11-22T21:43:43.435Z,19.90
2018-11-22T21:46:12.643Z,19.00
2018-11-22T21:48:41.763Z,18.40
2018-11-22T21:51:11.146Z,18.90
2018-11-22T21:53:40.793Z,17.80
2018-11-22T21:56:10.635Z,18.90
2018-11-22T21:58:40.977Z,18.27
2018-11-22T22:01:10.880Z,19.10
2018-11-22T22:03:39.980Z,18.63
2018-11-22T22:06:09.149Z,19.13
2018-11-22T22:08:38.292Z,19.10
2018-11-22T22:11:07.677Z,18.30
2018-11-22T22:13:41.717Z,19.10
2018-11-22T22:16:11.175Z,17.70
2018-11-22T22:18:40.571Z,17.10
2018-11-22T22:21:10.177Z,18.20
2018-11-22T22:23:40.033Z,17.23
2018-11-22T22:26:09.216Z,17.10
2018-11-22T22:28:38.775Z,17.73
2018-11-22T22:31:08.881Z,17.77
2018-11-22T22:33:38.019Z,18.40
2018-11-22T22:36:07.183Z,19.50
2018-11-22T22:38:36.811Z,18.10
2018-11-22T22:41:08.496Z,18.50
2018-11-22T22:43:37.870Z,17.60
2018-11-22T22:46:13.271Z,18.17
2018-11-22T22:48:42.879Z,20.63
2018-11-22T22:51:15.421Z,19.87
2018-11-22T22:53:44.920Z,18.90
2018-11-22T22:56:14.190Z,20.40
2018-11-22T22:58:43.843Z,20.47
2018-11-22T23:01:13.211Z,19.03
2018-11-22T23:03:51.941Z,18.17
2018-11-22T23:06:22.008Z,17.80
2018-11-22T23:08:56.395Z,16.57
2018-11-22T23:11:30.181Z,17.33
2018-11-22T23:14:00.012Z,18.63
2018-11-22T23:16:29.108Z,17.60
2018-11-22T23:18:59.394Z,17.97
2018-11-22T23:21:32.999Z,17.47
2018-11-22T23:24:03.348Z,17.27
2018-11-22T23:26:32.787Z,17.43
2018-11-22T23:29:02.216Z,17.00
2018-11-22T23:31:31.535Z,16.50
2018-11-22T23:34:00.994Z,16.23
2018-11-22T23:36:30.321Z,17.40
2018-11-22T23:39:00.550Z,15.50
2018-11-22T23:41:30.848Z,15.97
2018-11-22T23:44:01.236Z,15.77
2018-11-22T23:46:30.914Z,15.47
2018-11-22T23:49:00.764Z,15.70
2018-11-22T23:51:47.651Z,16.47
2018-11-22T23:54:17.003Z,17.83
2018-11-22T23:56:46.407Z,17.03
2018-11-22T23:59:15.825Z,16.73
